AirNav   TITAN Aviation Fuels
 
 406 users online  

1WI2 Moving Cloud Island Seaplane Base
Woodruff, Wisconsin, USA

GOING TO WOODRUFF?


FAA INFORMATION EFFECTIVE 22 APRIL 2021

Location

FAA Identifier: 1WI2
Lat/Long: 46-01-46.0000N 089-41-11.0000W
46-01.766667N 089-41.183333W
46.0294444,-89.6863889
(estimated)
Elevation: 1600 ft. / 488 m (estimated)
From city: 7 miles N of WOODRUFF, WI
Time zone: UTC -5 (UTC -6 during Standard Time)
Zip code: 54568

Seaplane Base Operations

Seaplane Base use: Private use. Permission required prior to landing
Activation date: 09/2017
Control tower: no
ARTCC: MINNEAPOLIS CENTER
FSS: GREEN BAY FLIGHT SERVICE STATION
Attendance: 
Segmented circle: no

Seaplane Base Communications

WX AWOS-3 at ARV (6 nm S): 121.125 (715-356-2417)
WX AWOS-3PT at D25 (10 nm NW): 118.175 (715-543-2004)
WX AWOS-3 at EGV (18 nm E): 118.325 (715-479-1465)

Nearby radio navigation aids

VOR radial/distance  VOR name  Freq  Var
RHIr336/25.6RHINELANDER VOR/DME109.2002E
IWDr148/35.2IRONWOOD VOR/DME108.8001E

 
NDB name  Hdg/Dist  Freq  Var  ID
DOUGY011/11.823602WDO -.. ---
WATERSMEET229/23.040702WRXW .-. -..- .--

Seaplane Base Services

Runway Information

Runway 4W/22W

Dimensions: 8342 x 1500 ft. / 2543 x 457 m
Surface: water
RUNWAY 4W  RUNWAY 22W
Traffic pattern: leftleft

Runway 11W/29W

Dimensions: 7431 x 1500 ft. / 2265 x 457 m
Surface: water
RUNWAY 11W  RUNWAY 29W
Traffic pattern: leftleft

Seaplane Base Ownership and Management from official FAA records

Ownership: Privately-owned
Owner: MICHAEL GRAHAM
3584 TROUT LAKE ROAD
ARBOR VITAE, WI 54568
Phone 847-528-7807
Manager: MICHAEL GRAHAM
3584 TROUT LAKE ROAD
ARBOR VITAE, WI 54568
Phone 847-528-7807
EMAIL ADDRESS: MJG7807@GMAIL.COM

Additional Remarks

FOR CD CTC MINNEAPOLIS ARTCC AT 651-463-5588.

Instrument Procedures

There are no published instrument procedures at 1WI2.

Some nearby airports with instrument procedures:

KARV - Lakeland Airport/Noble F. Lee Memorial Field (6 nm S)
D25 - Manitowish Waters Airport (10 nm NW)
KEGV - Eagle River Union Airport (18 nm E)
KLNL - Kings Land O' Lakes Airport (21 nm E)
KRHI - Rhinelander-Oneida County Airport (26 nm S)
 
Loc | Ops | Rwys | IFR | FBO | Links
Com | Nav | Svcs | Stats | Notes
Aerial photo
No photo
 
Airport distance calculator
Flying to Moving Cloud Island Seaplane Base? Find the distance to fly.

From to 1WI2

Sunrise and sunset
Times for 09-May-2021
 Local
(UTC-5)
 Zulu
(UTC)
Morning civil twilight05:0110:01
Sunrise05:3510:35
Sunset20:1501:15
Evening civil twilight20:5001:50

Current date and time
Zulu (UTC)  09-May-2021 07:27:37
Local (UTC-5)  09-May-2021 02:27:37
 
METAR
KARV 
7nm S 
090715Z AUTO 00000KT 10SM CLR 04/M01 A3000 RMK AO2 T00401008
KD25 
10nm NW 
090715Z AUTO 07004KT 10SM CLR 03/M02 A3000 RMK AO2 T00341018
KEGV 
19nm E 
090715Z AUTO 00000KT 10SM CLR 02/M03 A3001 RMK AO2 T00161026
TAF
KRHI 
25nm S 
090520Z 0906/1006 VRB03KT P6SM SCT100 BKN250 FM091600 03005KT P6SM BKN060 FM091900 01007KT P6SM BKN080 FM092300 02004KT P6SM SCT100
NOTAMs
Click for the latest NOTAMs
NOTAMs are issued by the DoD/FAA and will open in a separate window not controlled by AirNav.

 

 
 

Would you like to see your business listed on this page?

 If your business provides an interesting product or service to pilots, flight crews, aircraft, or users of the Moving Cloud Island Seaplane Base, you should consider listing it here.  To start the listing process, click on the button below
 
Add a business
 

Other Pages about Moving Cloud Island Seaplane Base

Update a link
 
Copyright © AirNav, LLC. All rights reserved. Privacy Policy  Contact